createdAt,value
2023-04-26T00:00:06.088Z,1000.00
2023-04-26T00:01:06.104Z,1000.00
2023-04-26T00:02:06.121Z,1000.00
2023-04-26T00:03:06.237Z,1000.00
2023-04-26T00:04:06.284Z,1000.00
2023-04-26T00:05:06.414Z,1000.00
2023-04-26T00:06:06.203Z,1000.00
2023-04-26T00:07:06.235Z,1000.00
2023-04-26T00:08:06.269Z,1000.00
2023-04-26T00:09:06.288Z,1000.00
2023-04-26T00:10:06.340Z,1000.00
2023-04-26T00:11:06.339Z,1000.00
2023-04-26T00:12:06.396Z,1000.00
2023-04-26T00:13:06.382Z,1000.00
2023-04-26T00:14:06.410Z,1000.00
2023-04-26T00:15:06.433Z,1000.00
2023-04-26T00:16:06.471Z,1000.00
2023-04-26T00:17:06.462Z,1000.00
2023-04-26T00:18:06.506Z,1000.00
2023-04-26T00:19:06.510Z,1000.00
2023-04-26T00:20:06.535Z,1000.00
2023-04-26T00:21:06.563Z,1000.00
2023-04-26T00:22:06.602Z,1000.00
2023-04-26T00:23:06.598Z,1000.00
2023-04-26T00:24:06.618Z,1000.00
2023-04-26T00:25:06.649Z,1000.00
2023-04-26T00:26:06.668Z,1000.00
2023-04-26T00:27:06.691Z,1000.00
2023-04-26T00:28:06.716Z,1000.00
2023-04-26T00:29:06.765Z,1000.00
2023-04-26T00:30:06.791Z,1000.00
2023-04-26T00:31:06.811Z,1000.00
2023-04-26T00:32:06.867Z,1000.00
2023-04-26T00:33:06.901Z,1000.00
2023-04-26T00:34:06.871Z,1000.00
2023-04-26T00:35:06.903Z,1000.00
2023-04-26T00:36:06.922Z,1000.00
2023-04-26T00:37:06.929Z,1000.00
2023-04-26T00:38:06.958Z,1000.00
2023-04-26T00:39:06.961Z,1000.00
2023-04-26T00:40:07.038Z,1000.00
2023-04-26T00:41:07.096Z,1000.00
2023-04-26T00:42:07.182Z,1000.00
2023-04-26T00:43:07.258Z,1000.00
2023-04-26T00:44:07.366Z,1000.00
2023-04-26T00:45:07.427Z,1000.00
2023-04-26T00:46:07.524Z,1000.00
2023-04-26T00:47:07.586Z,1000.00
2023-04-26T00:48:07.734Z,1000.00
2023-04-26T00:49:07.736Z,1000.00
2023-04-26T00:50:07.817Z,1000.00
2023-04-26T00:51:08.038Z,1000.00
2023-04-26T00:52:07.989Z,1000.00
2023-04-26T00:53:08.045Z,1000.00
2023-04-26T00:54:08.144Z,1000.00
2023-04-26T00:55:08.239Z,1000.00
2023-04-26T00:56:08.345Z,1000.00
2023-04-26T00:57:08.391Z,1000.00
2023-04-26T00:58:08.493Z,1000.00
2023-04-26T00:59:08.595Z,1000.00
2023-04-26T01:00:08.675Z,1000.00
2023-04-26T01:01:08.817Z,1000.00
2023-04-26T01:02:08.859Z,1000.00
2023-04-26T01:03:09.073Z,1000.00
2023-04-26T01:04:09.131Z,1000.00
2023-04-26T01:05:09.098Z,1000.00
2023-04-26T01:06:09.188Z,1000.00
2023-04-26T01:07:09.273Z,1000.00
2023-04-26T01:08:09.354Z,1000.00
2023-04-26T01:09:09.445Z,1000.00
2023-04-26T01:10:09.521Z,1000.00
2023-04-26T01:11:09.604Z,1000.00
2023-04-26T01:12:09.681Z,1000.00
2023-04-26T01:13:09.767Z,1000.00
2023-04-26T01:14:09.847Z,1000.00
2023-04-26T01:15:09.923Z,1000.00
2023-04-26T01:16:10.011Z,1000.00
2023-04-26T01:17:10.155Z,1000.00
2023-04-26T01:18:10.159Z,1000.00
2023-04-26T01:19:10.691Z,1000.00
2023-04-26T01:20:10.313Z,1000.00
2023-04-26T01:21:10.392Z,1000.00
2023-04-26T01:22:10.436Z,1000.00
2023-04-26T01:23:10.574Z,1000.00
2023-04-26T01:24:10.739Z,1000.00
2023-04-26T01:25:10.928Z,1000.00
2023-04-26T01:26:11.160Z,1000.00
2023-04-26T01:27:11.403Z,1000.00
2023-04-26T01:28:11.647Z,1000.00
2023-04-26T01:29:11.815Z,1000.00
2023-04-26T01:30:11.960Z,1000.00
2023-04-26T01:31:12.194Z,1000.00
2023-04-26T01:32:12.168Z,1000.00
2023-04-26T01:33:12.171Z,1000.00
2023-04-26T01:34:12.221Z,1000.00
2023-04-26T01:35:12.224Z,1000.00
2023-04-26T01:36:12.237Z,1000.00
2023-04-26T01:37:12.259Z,1000.00
2023-04-26T01:38:12.269Z,1000.00
2023-04-26T01:39:12.287Z,1000.00
2023-04-26T01:40:12.312Z,1000.00
2023-04-26T01:41:12.312Z,1000.00
2023-04-26T01:42:12.339Z,1000.00
2023-04-26T01:43:12.364Z,1000.00
2023-04-26T01:44:12.369Z,1000.00
2023-04-26T01:45:12.387Z,1000.00
2023-04-26T01:46:12.431Z,1000.00
2023-04-26T01:47:12.423Z,1000.00
2023-04-26T01:48:12.444Z,1000.00
2023-04-26T01:49:12.458Z,1000.00
2023-04-26T01:50:12.477Z,1000.00
2023-04-26T01:51:12.496Z,1000.00
2023-04-26T01:52:12.690Z,1000.00
2023-04-26T01:53:12.526Z,1000.00
2023-04-26T01:54:12.540Z,1000.00
2023-04-26T01:55:12.555Z,1000.00
2023-04-26T01:56:12.577Z,1000.00
2023-04-26T01:57:12.594Z,1000.00
2023-04-26T01:58:12.616Z,1000.00
2023-04-26T01:59:12.653Z,1000.00
2023-04-26T02:00:12.677Z,1000.00
2023-04-26T02:01:12.715Z,1000.00
2023-04-26T02:02:12.756Z,1000.00
2023-04-26T02:03:12.805Z,1000.00
2023-04-26T02:04:12.738Z,1000.00
2023-04-26T02:05:12.801Z,1000.00
2023-04-26T02:06:12.781Z,1000.00
2023-04-26T02:07:12.788Z,1000.00
2023-04-26T02:08:12.820Z,1000.00
2023-04-26T02:09:12.847Z,1000.00
2023-04-26T02:10:12.869Z,1000.00
2023-04-26T02:11:12.892Z,1000.00
2023-04-26T02:12:12.906Z,1000.00
2023-04-26T02:13:12.970Z,1000.00
2023-04-26T02:14:13.066Z,1000.00
2023-04-26T02:15:13.146Z,1000.00
2023-04-26T02:16:13.277Z,1000.00
2023-04-26T02:17:13.287Z,1000.00
2023-04-26T02:18:13.419Z,1000.00
2023-04-26T02:19:13.461Z,1000.00
2023-04-26T02:20:13.526Z,1000.00
2023-04-26T02:21:13.771Z,1000.00
2023-04-26T02:22:13.691Z,1000.00
2023-04-26T02:23:13.773Z,1000.00
2023-04-26T02:24:13.860Z,1000.00
2023-04-26T02:25:13.930Z,1000.00
2023-04-26T02:26:14.011Z,1000.00
2023-04-26T02:27:14.081Z,1000.00
2023-04-26T02:28:14.172Z,1000.00
2023-04-26T02:29:14.264Z,1000.00
2023-04-26T02:30:14.339Z,1000.00
2023-04-26T02:31:14.503Z,1000.00
2023-04-26T02:32:14.650Z,1000.00
2023-04-26T02:33:14.624Z,1000.00
2023-04-26T02:34:14.726Z,1000.00
2023-04-26T02:35:14.800Z,1000.00
2023-04-26T02:36:14.948Z,1000.00
2023-04-26T02:37:14.974Z,1000.00
2023-04-26T02:38:15.061Z,1000.00
2023-04-26T02:39:15.152Z,1000.00
2023-04-26T02:40:15.265Z,1000.00
2023-04-26T02:41:15.345Z,1000.00
2023-04-26T02:42:15.436Z,1000.00
2023-04-26T02:43:15.571Z,1000.00
2023-04-26T02:44:15.609Z,1000.00
2023-04-26T02:45:15.703Z,1000.00
2023-04-26T02:46:17.232Z,1000.00
2023-04-26T02:47:15.868Z,1000.00
2023-04-26T02:48:15.920Z,1000.00
2023-04-26T02:49:15.980Z,1000.00
2023-04-26T02:50:16.188Z,1000.00
2023-04-26T02:51:16.086Z,1000.00
2023-04-26T02:52:16.135Z,1000.00
2023-04-26T02:53:16.218Z,1000.00
2023-04-26T02:54:16.286Z,1000.00
2023-04-26T02:55:16.377Z,1000.00
2023-04-26T02:56:16.421Z,1000.00
2023-04-26T02:57:16.486Z,1000.00
2023-04-26T02:58:16.564Z,1000.00
2023-04-26T02:59:16.639Z,1000.00
2023-04-26T03:00:16.721Z,1000.00
2023-04-26T03:01:16.837Z,1000.00
2023-04-26T03:02:17.010Z,1000.00
2023-04-26T03:03:17.304Z,1000.00
2023-04-26T03:04:17.117Z,1000.00
2023-04-26T03:05:17.152Z,1000.00
2023-04-26T03:06:17.210Z,1000.00
2023-04-26T03:07:17.299Z,1000.00
2023-04-26T03:08:17.374Z,1000.00
2023-04-26T03:09:17.425Z,1000.00
2023-04-26T03:10:17.469Z,1000.00
2023-04-26T03:11:17.510Z,1000.00
2023-04-26T03:12:17.542Z,1000.00
2023-04-26T03:13:17.632Z,1000.00
2023-04-26T03:14:17.679Z,1000.00
2023-04-26T03:15:17.728Z,1000.00
2023-04-26T03:16:17.804Z,1000.00
2023-04-26T03:17:17.845Z,1000.00
2023-04-26T03:18:17.897Z,1000.00
2023-04-26T03:19:18.732Z,1000.00
2023-04-26T03:20:18.079Z,1000.00
2023-04-26T03:21:18.130Z,1000.00
2023-04-26T03:22:18.149Z,1000.00
2023-04-26T03:23:18.200Z,1000.00
2023-04-26T03:24:18.387Z,1000.00
2023-04-26T03:25:18.558Z,1000.00
2023-04-26T03:26:18.735Z,1000.00
2023-04-26T03:27:18.901Z,1000.00
2023-04-26T03:28:19.058Z,1000.00
2023-04-26T03:29:19.255Z,1000.00
2023-04-26T03:30:19.412Z,1000.00
2023-04-26T03:31:19.721Z,1000.00
2023-04-26T03:32:19.918Z,1000.00
2023-04-26T03:33:20.115Z,1000.00
2023-04-26T03:34:20.238Z,1000.00
2023-04-26T03:35:20.447Z,1000.00
2023-04-26T03:36:20.639Z,1000.00
2023-04-26T03:37:20.815Z,1000.00
2023-04-26T03:38:20.991Z,1000.00
2023-04-26T03:39:21.174Z,1000.00
2023-04-26T03:40:21.328Z,1000.00
2023-04-26T03:41:21.512Z,1000.00
2023-04-26T03:42:21.684Z,1000.00
2023-04-26T03:43:21.867Z,1000.00
2023-04-26T03:44:22.072Z,1000.00
2023-04-26T03:45:22.215Z,1000.00
2023-04-26T03:46:22.525Z,1000.00
2023-04-26T03:47:22.521Z,1000.00
2023-04-26T03:48:23.736Z,1000.00
2023-04-26T03:49:22.787Z,1000.00
2023-04-26T03:50:22.877Z,1000.00
2023-04-26T03:51:22.948Z,1000.00
2023-04-26T03:52:23.039Z,1000.00
2023-04-26T03:53:23.102Z,1000.00
2023-04-26T03:54:23.175Z,1000.00
2023-04-26T03:55:23.230Z,1000.00
2023-04-26T03:56:23.265Z,1000.00
2023-04-26T03:57:23.299Z,1000.00
2023-04-26T03:58:23.376Z,1000.00
2023-04-26T03:59:23.428Z,1000.00
2023-04-26T04:00:23.460Z,1000.00
2023-04-26T04:01:23.508Z,1000.00
2023-04-26T04:02:23.600Z,1000.00
2023-04-26T04:03:23.757Z,1000.00
2023-04-26T04:04:24.099Z,1000.00
2023-04-26T04:05:23.811Z,1000.00
2023-04-26T04:06:23.802Z,1000.00
2023-04-26T04:07:23.840Z,1000.00
2023-04-26T04:08:23.879Z,1000.00
2023-04-26T04:09:23.924Z,1000.00
2023-04-26T04:10:23.962Z,1000.00
2023-04-26T04:11:24.000Z,1000.00
2023-04-26T04:12:24.027Z,1000.00
2023-04-26T04:13:24.054Z,1000.00
2023-04-26T04:14:24.207Z,1000.00
2023-04-26T04:15:24.275Z,1000.00
2023-04-26T04:16:24.360Z,1000.00
2023-04-26T04:17:24.382Z,1000.00
2023-04-26T04:18:24.472Z,1000.00
2023-04-26T04:19:24.671Z,1000.00
2023-04-26T04:20:24.822Z,1000.00
2023-04-26T04:21:24.996Z,1000.00
2023-04-26T04:22:25.215Z,1000.00
2023-04-26T04:23:25.459Z,1000.00
2023-04-26T04:24:25.703Z,1000.00
2023-04-26T04:25:25.832Z,1000.00
2023-04-26T04:26:26.041Z,1000.00
2023-04-26T04:27:26.258Z,1000.00
2023-04-26T04:28:26.450Z,1000.00
2023-04-26T04:29:26.642Z,1000.00
2023-04-26T04:30:26.876Z,1000.00
2023-04-26T04:31:27.062Z,1000.00
2023-04-26T04:32:27.309Z,1000.00
2023-04-26T04:33:27.447Z,1000.00
2023-04-26T04:34:27.612Z,1000.00
2023-04-26T04:35:27.800Z,1000.00
2023-04-26T04:36:28.019Z,1000.00
2023-04-26T04:37:28.200Z,1000.00
2023-04-26T04:38:28.374Z,1000.00
2023-04-26T04:39:28.555Z,1000.00
2023-04-26T04:40:28.738Z,1000.00
2023-04-26T04:41:28.921Z,1000.00
2023-04-26T04:42:29.110Z,1000.00
2023-04-26T04:43:29.290Z,1000.00
2023-04-26T04:44:29.495Z,1000.00
2023-04-26T04:45:29.693Z,1000.00
2023-04-26T04:46:29.930Z,1000.00
2023-04-26T04:47:30.106Z,1000.00
2023-04-26T04:48:30.287Z,1000.00
2023-04-26T04:49:30.495Z,1000.00
2023-04-26T04:50:30.659Z,1000.00
2023-04-26T04:51:30.859Z,1000.00
2023-04-26T04:52:31.052Z,1000.00
2023-04-26T04:53:31.264Z,1000.00
2023-04-26T04:54:31.456Z,1000.00
2023-04-26T04:55:31.669Z,1000.00
2023-04-26T04:56:31.862Z,1000.00
2023-04-26T04:57:32.095Z,1000.00
2023-04-26T04:58:32.291Z,1000.00
2023-04-26T04:59:32.476Z,1000.00
2023-04-26T05:00:32.708Z,1000.00
2023-04-26T05:01:32.987Z,1000.00
2023-04-26T05:02:33.280Z,1000.00
2023-04-26T05:03:33.516Z,1000.00
2023-04-26T05:04:33.743Z,1000.00
2023-04-26T05:05:33.555Z,1000.00
2023-04-26T05:06:33.619Z,1000.00
2023-04-26T05:07:33.692Z,1000.00
2023-04-26T05:08:33.767Z,1000.00
2023-04-26T05:09:33.877Z,1000.00
2023-04-26T05:10:33.926Z,1000.00
2023-04-26T05:11:34.012Z,1000.00
2023-04-26T05:12:34.079Z,1000.00
2023-04-26T05:13:34.186Z,1000.00
2023-04-26T05:14:34.411Z,1000.00
2023-04-26T05:15:34.595Z,1000.00
2023-04-26T05:16:34.871Z,1000.00
2023-04-26T05:17:35.120Z,1000.00
2023-04-26T05:18:35.209Z,1000.00
2023-04-26T05:19:35.398Z,1000.00
2023-04-26T05:20:35.560Z,1000.00
2023-04-26T05:21:35.766Z,1000.00
2023-04-26T05:22:35.937Z,1000.00
2023-04-26T05:23:36.124Z,1000.00
2023-04-26T05:24:36.319Z,1000.00
2023-04-26T05:25:36.541Z,1000.00
2023-04-26T05:26:36.740Z,1000.00
2023-04-26T05:27:36.886Z,1000.00
2023-04-26T05:28:36.968Z,1000.00
2023-04-26T05:29:37.091Z,1000.00
2023-04-26T05:30:37.180Z,1000.00
2023-04-26T05:31:37.380Z,1000.00
2023-04-26T05:32:37.387Z,1000.00
2023-04-26T05:33:37.363Z,1000.00
2023-04-26T05:34:37.443Z,1000.00
2023-04-26T05:35:37.540Z,1000.00
2023-04-26T05:36:37.585Z,1000.00
2023-04-26T05:37:37.754Z,1000.00
2023-04-26T05:38:38.739Z,1000.00
2023-04-26T05:39:38.012Z,1000.00
2023-04-26T05:40:38.064Z,1000.00
2023-04-26T05:41:38.140Z,1000.00
2023-04-26T05:42:38.258Z,1000.00
2023-04-26T05:43:38.357Z,1000.00
2023-04-26T05:44:38.481Z,1000.00
2023-04-26T05:45:38.626Z,1000.00
2023-04-26T05:46:38.726Z,1000.00
2023-04-26T05:47:38.898Z,1000.00
2023-04-26T05:48:38.981Z,1000.00
2023-04-26T05:49:39.118Z,1000.00
2023-04-26T05:50:40.190Z,1000.00
2023-04-26T05:51:39.377Z,1000.00
2023-04-26T05:52:39.407Z,1000.00
2023-04-26T05:53:39.525Z,1000.00
2023-04-26T05:54:39.596Z,1000.00
2023-04-26T05:55:39.665Z,1000.00
2023-04-26T05:56:39.754Z,1000.00
2023-04-26T05:57:39.910Z,1000.00
2023-04-26T05:58:40.001Z,1000.00
2023-04-26T05:59:40.127Z,1000.00
2023-04-26T06:00:40.240Z,1000.00
2023-04-26T06:01:40.360Z,1000.00
2023-04-26T06:02:40.602Z,1000.00
2023-04-26T06:03:40.733Z,1000.00
2023-04-26T06:04:40.824Z,1000.00
2023-04-26T06:05:40.887Z,1000.00
2023-04-26T06:06:40.882Z,1000.00
2023-04-26T06:07:40.958Z,1000.00
2023-04-26T06:08:41.034Z,1000.00
2023-04-26T06:09:41.134Z,1000.00
2023-04-26T06:10:41.262Z,1000.00
2023-04-26T06:11:41.293Z,1000.00
2023-04-26T06:12:41.344Z,1000.00
2023-04-26T06:13:41.377Z,1000.00
2023-04-26T06:14:41.438Z,1000.00
2023-04-26T06:15:41.568Z,1000.00
2023-04-26T06:16:43.581Z,1000.00
2023-04-26T06:17:41.669Z,1000.00
2023-04-26T06:18:41.676Z,1000.00
2023-04-26T06:19:41.804Z,1000.00
2023-04-26T06:20:41.863Z,1000.00
2023-04-26T06:21:41.922Z,1000.00
2023-04-26T06:22:42.074Z,1000.00
2023-04-26T06:23:42.105Z,1000.00
2023-04-26T06:24:42.194Z,1000.00
2023-04-26T06:25:42.282Z,1000.00
2023-04-26T06:26:42.365Z,1000.00
2023-04-26T06:27:44.280Z,1000.00
2023-04-26T06:28:43.312Z,1000.00
2023-04-26T06:29:42.599Z,1000.00
2023-04-26T06:30:43.692Z,1000.00
2023-04-26T06:31:42.767Z,1000.00
2023-04-26T06:32:42.888Z,1000.00
2023-04-26T06:33:42.923Z,1000.00
2023-04-26T06:34:42.997Z,1000.00
2023-04-26T06:35:43.107Z,1000.00
2023-04-26T06:36:43.162Z,1000.00
2023-04-26T06:37:43.220Z,1000.00
2023-04-26T06:38:43.338Z,1000.00
2023-04-26T06:39:43.379Z,1000.00
2023-04-26T06:40:43.464Z,1000.00
2023-04-26T06:41:44.260Z,1000.00
2023-04-26T06:42:44.181Z,1000.00
2023-04-26T06:43:43.638Z,1000.00
2023-04-26T06:44:43.701Z,1000.00
2023-04-26T06:45:43.783Z,1000.00
2023-04-26T06:46:43.889Z,1000.00
2023-04-26T06:47:44.047Z,1000.00
2023-04-26T06:48:44.008Z,1000.00
2023-04-26T06:49:44.080Z,844.80
2023-04-26T06:50:44.181Z,632.76
2023-04-26T06:51:44.247Z,827.02
2023-04-26T06:52:44.340Z,1000.00
2023-04-26T06:53:44.450Z,850.67
2023-04-26T06:54:56.013Z,789.09
2023-04-26T06:55:46.274Z,789.67
2023-04-26T06:56:44.524Z,791.75
2023-04-26T06:57:44.521Z,721.56
2023-04-26T06:58:44.575Z,660.75
2023-04-26T06:59:44.550Z,330.14
2023-04-26T07:00:44.589Z,170.09
2023-04-26T07:01:44.577Z,110.90
2023-04-26T07:02:44.745Z,91.80
2023-04-26T07:03:44.681Z,70.79
2023-04-26T07:04:45.048Z,80.25
2023-04-26T07:05:45.182Z,75.47
2023-04-26T07:06:44.797Z,42.97
2023-04-26T07:07:44.632Z,21.51
2023-04-26T07:08:44.684Z,13.64
2023-04-26T07:09:46.383Z,11.36
2023-04-26T07:10:44.655Z,15.85
2023-04-26T07:11:44.656Z,27.14
2023-04-26T07:12:44.984Z,42.36
2023-04-26T07:13:44.657Z,43.18
2023-04-26T07:14:44.766Z,23.91
2023-04-26T07:15:44.703Z,14.87
2023-04-26T07:16:44.769Z,17.09
2023-04-26T07:17:44.650Z,30.38
2023-04-26T07:18:44.643Z,32.67
2023-04-26T07:19:44.638Z,34.27
2023-04-26T07:20:44.630Z,45.24
2023-04-26T07:21:44.621Z,50.83
2023-04-26T07:22:44.608Z,73.72
2023-04-26T07:23:44.591Z,117.46
2023-04-26T07:24:44.581Z,156.49
2023-04-26T07:25:44.569Z,195.09
2023-04-26T07:26:44.556Z,135.98
2023-04-26T07:27:44.560Z,109.11
2023-04-26T07:28:44.526Z,167.13
2023-04-26T07:29:44.512Z,156.99
2023-04-26T07:30:44.505Z,102.76
2023-04-26T07:31:44.480Z,83.07
2023-04-26T07:32:44.563Z,52.62
2023-04-26T07:33:44.538Z,38.92
2023-04-26T07:34:44.559Z,31.06
2023-04-26T07:35:44.778Z,20.64
2023-04-26T07:36:44.674Z,34.61
2023-04-26T07:37:44.718Z,42.22
2023-04-26T07:38:44.773Z,77.81
2023-04-26T07:39:44.831Z,111.02
2023-04-26T07:40:44.874Z,152.22
2023-04-26T07:41:44.921Z,120.16
2023-04-26T07:42:44.955Z,33.17
2023-04-26T07:43:44.951Z,22.65
2023-04-26T07:44:45.005Z,10.93
2023-04-26T07:45:45.066Z,3.21
2023-04-26T07:46:45.065Z,1.21
2023-04-26T07:47:45.127Z,0.90
2023-04-26T07:48:45.174Z,1.13
2023-04-26T07:49:47.529Z,0.67
2023-04-26T07:50:45.379Z,0.63
2023-04-26T07:51:45.411Z,0.78
2023-04-26T07:52:45.422Z,0.87
2023-04-26T07:53:45.420Z,0.85
2023-04-26T07:54:46.266Z,0.74
2023-04-26T07:55:45.428Z,1.00
2023-04-26T07:56:45.415Z,1.18
2023-04-26T07:57:45.444Z,0.98
2023-04-26T07:58:45.377Z,0.34
2023-04-26T07:59:45.326Z,0.34
2023-04-26T08:00:45.340Z,0.34
2023-04-26T08:01:46.225Z,0.34
2023-04-26T08:02:45.712Z,0.34
2023-04-26T08:03:45.799Z,0.34
2023-04-26T08:04:45.552Z,0.34
2023-04-26T08:05:45.676Z,0.34
2023-04-26T08:06:45.302Z,0.34
2023-04-26T08:07:45.271Z,0.34
2023-04-26T08:08:45.267Z,0.34
2023-04-26T08:09:45.259Z,0.34
2023-04-26T08:10:45.773Z,0.34
2023-04-26T08:11:45.263Z,0.34
2023-04-26T08:12:45.234Z,0.34
2023-04-26T08:13:45.201Z,0.34
2023-04-26T08:14:45.184Z,0.34
2023-04-26T08:15:45.185Z,0.34
2023-04-26T08:16:45.208Z,0.34
2023-04-26T08:17:45.753Z,0.34
2023-04-26T08:18:46.756Z,0.34
2023-04-26T08:19:45.199Z,0.34
2023-04-26T08:20:45.270Z,0.34
2023-04-26T08:21:45.247Z,0.34
2023-04-26T08:22:45.293Z,0.34
2023-04-26T08:23:45.338Z,0.34
2023-04-26T08:24:45.342Z,0.34
2023-04-26T08:25:47.273Z,0.34
2023-04-26T08:26:45.451Z,0.34
2023-04-26T08:27:45.413Z,0.34
2023-04-26T08:28:45.412Z,0.34
2023-04-26T08:29:45.429Z,0.48
2023-04-26T08:30:45.552Z,0.58
2023-04-26T08:31:45.378Z,0.46
2023-04-26T08:32:45.461Z,0.40
2023-04-26T08:33:45.386Z,0.53
2023-04-26T08:34:46.274Z,0.45
2023-04-26T08:35:45.337Z,0.63
2023-04-26T08:36:45.312Z,1.06
2023-04-26T08:37:45.353Z,1.48
2023-04-26T08:38:45.457Z,1.99
2023-04-26T08:39:45.461Z,1.38
2023-04-26T08:40:45.432Z,1.07
2023-04-26T08:41:45.435Z,0.81
2023-04-26T08:42:45.429Z,0.46
2023-04-26T08:43:45.473Z,0.44
2023-04-26T08:44:45.373Z,0.52
2023-04-26T08:45:45.395Z,0.43
2023-04-26T08:46:45.532Z,0.53
2023-04-26T08:47:45.411Z,0.70
2023-04-26T08:48:46.279Z,0.75
2023-04-26T08:49:45.429Z,0.92
2023-04-26T08:50:45.446Z,1.42
2023-04-26T08:51:45.438Z,1.43
2023-04-26T08:52:45.530Z,1.22
2023-04-26T08:53:45.505Z,1.07
2023-04-26T08:54:45.505Z,0.42
2023-04-26T08:55:45.472Z,0.34
2023-04-26T08:56:45.470Z,0.34
2023-04-26T08:57:45.643Z,0.35
2023-04-26T08:58:45.805Z,0.49
2023-04-26T08:59:45.950Z,0.81
2023-04-26T09:00:46.180Z,1.71
2023-04-26T09:01:46.337Z,6.06
2023-04-26T09:02:46.570Z,3.61
2023-04-26T09:03:46.969Z,2.58
2023-04-26T09:04:46.730Z,2.23
2023-04-26T09:05:46.644Z,1.74
2023-04-26T09:06:46.665Z,1.37
2023-04-26T09:07:46.858Z,1.56
2023-04-26T09:08:46.702Z,1.22
2023-04-26T09:09:46.784Z,0.55
2023-04-26T09:10:46.700Z,0.34
2023-04-26T09:11:46.677Z,0.34
2023-04-26T09:12:46.682Z,0.34
2023-04-26T09:13:46.718Z,0.34
2023-04-26T09:14:46.727Z,0.34
2023-04-26T09:15:46.797Z,0.34
2023-04-26T09:16:46.736Z,0.58
2023-04-26T09:17:46.804Z,0.50
2023-04-26T09:18:46.970Z,0.40
2023-04-26T09:19:46.794Z,0.51
2023-04-26T09:20:46.826Z,0.85
2023-04-26T09:21:46.841Z,1.59
2023-04-26T09:22:46.857Z,3.17
2023-04-26T09:23:46.880Z,6.52
2023-04-26T09:24:47.793Z,3.51
2023-04-26T09:25:46.825Z,2.12
2023-04-26T09:26:46.807Z,1.87
2023-04-26T09:27:46.783Z,2.19
2023-04-26T09:28:46.829Z,2.93
2023-04-26T09:29:46.827Z,3.65
2023-04-26T09:30:46.837Z,2.52
2023-04-26T09:31:49.282Z,2.40
2023-04-26T09:32:46.899Z,2.66
2023-04-26T09:33:46.794Z,2.30
2023-04-26T09:34:46.749Z,1.22
2023-04-26T09:35:46.721Z,0.86
2023-04-26T09:36:46.682Z,0.91
2023-04-26T09:37:57.565Z,0.79
2023-04-26T09:38:47.621Z,0.79
2023-04-26T09:39:46.543Z,0.57
2023-04-26T09:40:46.544Z,0.34
2023-04-26T09:41:46.501Z,0.34
2023-04-26T09:42:46.454Z,0.38
2023-04-26T09:43:46.435Z,0.60
2023-04-26T09:44:46.402Z,0.72
2023-04-26T09:45:46.486Z,0.83
2023-04-26T09:46:46.403Z,0.90
2023-04-26T09:47:46.334Z,0.62
2023-04-26T09:48:46.668Z,0.50
2023-04-26T09:49:46.237Z,0.47
2023-04-26T09:50:46.229Z,0.34
2023-04-26T09:51:46.358Z,0.34
2023-04-26T09:52:46.553Z,0.34
2023-04-26T09:53:46.781Z,0.34
2023-04-26T09:54:46.930Z,0.34
2023-04-26T09:55:47.084Z,0.50
2023-04-26T09:56:47.351Z,0.58
2023-04-26T09:57:47.522Z,0.96
2023-04-26T09:58:47.733Z,1.47
2023-04-26T09:59:47.907Z,1.73
2023-04-26T10:00:48.772Z,1.78
2023-04-26T10:01:48.019Z,2.80
2023-04-26T10:02:48.080Z,2.87
2023-04-26T10:03:48.188Z,4.14
2023-04-26T10:04:48.135Z,4.25
2023-04-26T10:05:48.074Z,4.74
2023-04-26T10:06:48.082Z,5.97
2023-04-26T10:07:48.241Z,2.46
2023-04-26T10:08:48.425Z,1.19
2023-04-26T10:09:48.585Z,0.79
2023-04-26T10:10:48.749Z,0.62
2023-04-26T10:11:48.904Z,1.74
2023-04-26T10:12:49.134Z,15.57
2023-04-26T10:13:49.327Z,5.75
2023-04-26T10:14:49.535Z,3.21
2023-04-26T10:15:49.731Z,2.37
2023-04-26T10:16:50.006Z,1.76
2023-04-26T10:17:52.042Z,1.45
2023-04-26T10:18:51.068Z,4.91
2023-04-26T10:19:50.183Z,4.86
2023-04-26T10:20:50.204Z,4.24
2023-04-26T10:21:50.208Z,3.36
2023-04-26T10:22:50.193Z,1.82
2023-04-26T10:23:50.186Z,0.81
2023-04-26T10:24:50.214Z,0.62
2023-04-26T10:25:50.415Z,0.81
2023-04-26T10:26:50.644Z,1.08
2023-04-26T10:27:50.800Z,1.87
2023-04-26T10:28:55.334Z,2.49
2023-04-26T10:29:51.904Z,1.98
2023-04-26T10:30:50.862Z,1.78
2023-04-26T10:31:50.822Z,2.20
2023-04-26T10:32:50.791Z,2.41
2023-04-26T10:33:50.710Z,3.12
2023-04-26T10:34:50.650Z,2.68
2023-04-26T10:35:50.610Z,2.02
2023-04-26T10:36:50.561Z,1.58
2023-04-26T10:37:50.555Z,1.10
2023-04-26T10:38:50.579Z,0.88
2023-04-26T10:39:50.494Z,0.78
2023-04-26T10:40:50.517Z,0.80
2023-04-26T10:41:50.520Z,1.09
2023-04-26T10:42:50.557Z,0.86
2023-04-26T10:43:50.601Z,0.54
2023-04-26T10:44:50.603Z,0.51
2023-04-26T10:45:50.661Z,0.53
2023-04-26T10:46:50.617Z,0.61
2023-04-26T10:47:50.602Z,0.96
2023-04-26T10:48:50.984Z,1.13
2023-04-26T10:49:50.548Z,1.13
2023-04-26T10:50:50.539Z,1.20
2023-04-26T10:51:50.483Z,1.09
2023-04-26T10:52:50.458Z,1.27
2023-04-26T10:53:50.518Z,1.58
2023-04-26T10:54:50.341Z,1.42
2023-04-26T10:55:50.305Z,0.84
2023-04-26T10:56:50.297Z,0.57
2023-04-26T10:57:50.325Z,0.43
2023-04-26T10:58:50.299Z,0.36
2023-04-26T10:59:54.729Z,0.49
2023-04-26T11:00:50.245Z,0.50
2023-04-26T11:01:50.333Z,0.52
2023-04-26T11:02:52.458Z,0.60
2023-04-26T11:03:50.303Z,0.86
2023-04-26T11:04:50.370Z,1.52
2023-04-26T11:05:49.962Z,1.76
2023-04-26T11:06:50.322Z,1.98
2023-04-26T11:07:49.836Z,2.64
2023-04-26T11:08:49.910Z,2.58
2023-04-26T11:09:49.728Z,1.73
2023-04-26T11:10:49.741Z,1.20
2023-04-26T11:11:49.626Z,1.33
2023-04-26T11:12:49.559Z,1.95
2023-04-26T11:13:49.504Z,76.33
2023-04-26T11:14:49.446Z,27.49
2023-04-26T11:15:52.007Z,12.75
2023-04-26T11:16:49.337Z,7.90
2023-04-26T11:17:49.325Z,4.50
2023-04-26T11:18:49.290Z,2.73
2023-04-26T11:19:49.204Z,1.97
2023-04-26T11:20:49.151Z,0.82
2023-04-26T11:21:49.119Z,0.55
2023-04-26T11:22:49.060Z,0.46
2023-04-26T11:23:49.011Z,0.42
2023-04-26T11:24:49.107Z,0.60
2023-04-26T11:25:49.259Z,0.88
2023-04-26T11:26:49.466Z,1.01
2023-04-26T11:27:49.628Z,1.05
2023-04-26T11:28:49.822Z,1.26
2023-04-26T11:29:49.966Z,2.04
2023-04-26T11:30:50.121Z,2.43
2023-04-26T11:31:50.294Z,1.30
2023-04-26T11:32:50.470Z,0.67
2023-04-26T11:33:51.006Z,0.50
2023-04-26T11:34:50.823Z,0.43
2023-04-26T11:35:50.997Z,0.48
2023-04-26T11:36:51.136Z,0.65
2023-04-26T11:37:51.282Z,0.58
2023-04-26T11:38:51.627Z,0.51
2023-04-26T11:39:51.618Z,0.60
2023-04-26T11:40:51.819Z,1.10
2023-04-26T11:41:51.995Z,1.54
2023-04-26T11:42:52.130Z,2.65
2023-04-26T11:43:52.301Z,2.83
2023-04-26T11:44:52.409Z,5.89
2023-04-26T11:45:52.649Z,16.86
2023-04-26T11:46:52.866Z,66.30
2023-04-26T11:47:53.039Z,135.31
2023-04-26T11:48:53.355Z,272.58
2023-04-26T11:49:53.248Z,250.57
2023-04-26T11:50:53.479Z,1000.00
2023-04-26T11:51:53.634Z,1000.00
2023-04-26T11:52:53.788Z,1000.00
2023-04-26T11:53:53.921Z,1000.00
2023-04-26T11:54:54.055Z,1000.00
2023-04-26T11:55:54.311Z,1000.00
2023-04-26T11:56:54.515Z,1000.00
2023-04-26T11:57:54.634Z,1000.00
2023-04-26T11:58:55.161Z,1000.00
2023-04-26T11:59:54.696Z,1000.00
2023-04-26T12:00:54.609Z,1000.00
2023-04-26T12:01:54.560Z,828.63
2023-04-26T12:02:54.840Z,376.30
2023-04-26T12:03:54.682Z,132.07
2023-04-26T12:04:54.308Z,105.07
2023-04-26T12:05:54.153Z,66.33
2023-04-26T12:06:54.074Z,47.73
2023-04-26T12:07:53.988Z,32.56
2023-04-26T12:08:54.077Z,26.15
2023-04-26T12:09:53.803Z,22.91
2023-04-26T12:10:53.709Z,22.16
2023-04-26T12:11:53.629Z,16.88
2023-04-26T12:12:53.582Z,10.87
2023-04-26T12:13:53.440Z,6.84
2023-04-26T12:14:53.353Z,5.52
2023-04-26T12:15:53.254Z,5.92
2023-04-26T12:16:53.214Z,4.42
2023-04-26T12:17:53.154Z,3.73
2023-04-26T12:18:52.988Z,2.49
2023-04-26T12:19:52.894Z,1.53
2023-04-26T12:20:52.817Z,1.18
2023-04-26T12:21:52.941Z,1.59
2023-04-26T12:22:52.671Z,1.89
2023-04-26T12:23:52.573Z,1.61
2023-04-26T12:24:52.513Z,2.42
2023-04-26T12:25:52.427Z,3.13
2023-04-26T12:26:52.347Z,3.27
2023-04-26T12:27:52.277Z,3.90
2023-04-26T12:28:52.200Z,5.19
2023-04-26T12:29:52.111Z,6.88
2023-04-26T12:30:52.047Z,3.71
2023-04-26T12:31:52.020Z,3.08
2023-04-26T12:32:52.240Z,3.60